Time;durP1;ratioP1;P1;durP2;ratioP2;P2;SDS_P1;SDS_P2;PMS_P1;PMS_P2;Temp;Humidity;BMP_temperature;BMP_pressure;BME280_temperature;BME280_humidity;BME280_pressure;Samples;Min_cycle;Max_cycle;Signal;HPM_P1;HPM_P2
2023/01/22 00:02:04;;;;;;;65.78;25.08;;;;;;;-1.63;100.00;102892.50;5025841;28;20485;-79
2023/01/22 00:04:30;;;;;;;58.05;24.10;;;;;;;-1.69;100.00;102885.81;5047509;28;20127;-80
2023/01/22 00:06:56;;;;;;;60.22;24.75;;;;;;;-1.66;100.00;102874.75;5047156;28;20110;-80
2023/01/22 00:09:21;;;;;;;61.22;24.92;;;;;;;-1.64;100.00;102878.97;5064331;28;20036;-79
2023/01/22 00:11:48;;;;;;;58.95;24.27;;;;;;;-1.68;100.00;102882.41;5061935;28;20061;-80
2023/01/22 00:14:14;;;;;;;57.38;23.67;;;;;;;-1.55;100.00;102877.09;5058355;28;20037;-79
2023/01/22 00:16:40;;;;;;;54.63;23.00;;;;;;;-1.59;100.00;102881.41;5050737;28;20033;-80
2023/01/22 00:19:06;;;;;;;62.88;23.75;;;;;;;-1.60;100.00;102884.81;5057183;28;20060;-84
2023/01/22 00:21:31;;;;;;;63.25;23.83;;;;;;;-1.64;100.00;102884.03;5036003;28;20056;-80
2023/01/22 00:23:56;;;;;;;61.42;23.63;;;;;;;-1.58;100.00;102883.09;5045523;28;20044;-82
2023/01/22 00:26:22;;;;;;;59.78;24.52;;;;;;;-1.61;100.00;102873.78;5033192;28;20037;-80
2023/01/22 00:28:47;;;;;;;57.63;24.20;;;;;;;-1.67;100.00;102868.81;5043669;28;20040;-80
2023/01/22 00:31:15;;;;;;;64.90;23.67;;;;;;;-1.64;100.00;102865.38;5045224;28;20036;-79
2023/01/22 00:33:41;;;;;;;56.80;24.08;;;;;;;-1.55;100.00;102867.75;5043041;28;20029;-79
2023/01/22 00:36:18;;;;;;;61.90;23.65;;;;;;;-1.57;100.00;102857.59;5027288;28;20474;-81
2023/01/22 00:38:46;;;;;;;59.92;22.60;;;;;;;-1.58;100.00;102850.03;5049696;28;20043;-79
2023/01/22 00:41:12;;;;;;;62.13;24.95;;;;;;;-1.54;100.00;102858.41;5048767;28;20033;-80
2023/01/22 00:43:39;;;;;;;55.60;23.58;;;;;;;-1.58;100.00;102850.84;5045024;28;20045;-80
2023/01/22 00:46:06;;;;;;;58.30;24.88;;;;;;;-1.57;100.00;102859.31;5029942;28;20398;-79
2023/01/22 00:48:32;;;;;;;60.50;24.90;;;;;;;-1.59;100.00;102861.06;5047041;28;20086;-80
2023/01/22 00:50:58;;;;;;;60.78;24.15;;;;;;;-1.60;100.00;102855.13;5044281;28;20045;-81
2023/01/22 00:53:23;;;;;;;56.90;24.40;;;;;;;-1.49;100.00;102852.38;5051811;28;20079;-79
2023/01/22 00:55:54;;;;;;;64.70;24.38;;;;;;;-1.49;100.00;102854.91;5054152;28;20086;-80
2023/01/22 00:58:20;;;;;;;60.65;23.83;;;;;;;-1.45;100.00;102856.56;5051978;28;20412;-81
2023/01/22 01:00:46;;;;;;;59.33;24.63;;;;;;;-1.48;100.00;102853.25;5052219;28;20037;-80
2023/01/22 01:03:29;;;;;;;56.50;23.90;;;;;;;-1.38;100.00;102845.38;5062870;28;20397;-81
2023/01/22 01:06:15;;;;;;;58.40;25.27;;;;;;;-1.43;100.00;102849.75;5033406;28;20056;-81
2023/01/22 01:08:42;;;;;;;56.33;23.05;;;;;;;-1.36;100.00;102845.34;5028942;28;20037;-80
2023/01/22 01:11:12;;;;;;;60.42;24.67;;;;;;;-1.38;100.00;102852.19;5042203;28;20070;-82
2023/01/22 01:13:41;;;;;;;57.53;21.95;;;;;;;-1.39;100.00;102853.91;5046340;28;20064;-83
2023/01/22 01:16:25;;;;;;;59.17;23.23;;;;;;;-1.38;100.00;102847.94;5054681;28;20036;-82
2023/01/22 01:18:51;;;;;;;63.17;23.52;;;;;;;-1.38;100.00;102837.75;5064096;28;20457;-81
2023/01/22 01:21:18;;;;;;;61.20;24.35;;;;;;;-1.41;100.00;102832.72;5047363;28;20128;-82
2023/01/22 01:23:44;;;;;;;55.47;24.83;;;;;;;-1.38;100.00;102840.28;5051395;28;20055;-80
2023/01/22 01:26:13;;;;;;;55.75;23.67;;;;;;;-1.32;100.00;102833.41;5043789;28;20037;-80
2023/01/22 01:28:39;;;;;;;55.72;24.58;;;;;;;-1.30;100.00;102829.13;5034836;28;20056;-82
2023/01/22 01:31:07;;;;;;;55.75;24.20;;;;;;;-1.26;100.00;102830.75;5062516;28;20052;-82
2023/01/22 01:33:33;;;;;;;54.38;23.88;;;;;;;-1.28;100.00;102825.72;5064148;28;20037;-80
2023/01/22 01:36:00;;;;;;;55.75;23.42;;;;;;;-1.27;100.00;102818.91;5030513;28;20037;-81
2023/01/22 01:38:28;;;;;;;52.58;22.45;;;;;;;-1.19;100.00;102822.97;5049166;28;20028;-79
2023/01/22 01:40:54;;;;;;;52.75;22.33;;;;;;;-1.23;100.00;102820.50;5048827;28;20525;-81
2023/01/22 01:43:19;;;;;;;51.92;23.42;;;;;;;-1.28;100.00;102820.63;5052439;28;20076;-80
2023/01/22 01:45:45;;;;;;;57.72;23.35;;;;;;;-1.24;100.00;102821.41;5051130;28;20044;-79
2023/01/22 01:48:31;;;;;;;54.00;23.45;;;;;;;-1.13;100.00;102828.81;5049829;28;20578;-79
2023/01/22 01:51:31;;;;;;;56.15;22.58;;;;;;;-1.16;100.00;102827.16;5062954;28;20044;-79
2023/01/22 01:53:59;;;;;;;56.17;23.23;;;;;;;-1.19;100.00;102824.66;5048324;28;20036;-80
2023/01/22 01:56:33;;;;;;;49.38;22.65;;;;;;;-1.20;100.00;102826.38;5046577;28;20083;-80
2023/01/22 01:59:04;;;;;;;52.90;22.70;;;;;;;-1.22;100.00;102829.84;5047785;28;20033;-80
2023/01/22 02:01:30;;;;;;;53.47;22.92;;;;;;;-1.22;100.00;102828.13;5051563;28;20125;-81
2023/01/22 02:03:56;;;;;;;54.47;24.02;;;;;;;-1.25;100.00;102823.06;5051764;28;20075;-80
2023/01/22 02:06:22;;;;;;;53.85;22.70;;;;;;;-1.27;100.00;102811.25;5050522;28;20134;-79
2023/01/22 02:08:49;;;;;;;58.25;24.92;;;;;;;-1.20;100.00;102821.28;5035856;28;20061;-79
2023/01/22 02:11:16;;;;;;;60.75;24.48;;;;;;;-1.18;100.00;102816.16;5049531;28;20052;-79
2023/01/22 02:13:48;;;;;;;55.92;24.05;;;;;;;-1.20;100.00;102816.19;5051100;28;20032;-79
2023/01/22 02:16:13;;;;;;;55.45;22.17;;;;;;;-1.14;100.00;102814.41;5044731;28;20029;-82
2023/01/22 02:18:40;;;;;;;56.13;24.10;;;;;;;-1.15;100.00;102816.09;5050242;28;20073;-79
2023/01/22 02:21:28;;;;;;;62.58;23.25;;;;;;;-1.15;100.00;102826.28;5032078;28;20060;-81
2023/01/22 02:23:53;;;;;;;54.70;23.75;;;;;;;-1.04;100.00;102829.44;5054471;28;20045;-80
2023/01/22 02:26:19;;;;;;;56.65;23.25;;;;;;;-1.16;100.00;102809.34;5048352;28;20044;-80
2023/01/22 02:28:45;;;;;;;65.28;25.70;;;;;;;-1.16;100.00;102818.69;5041964;28;20029;-83
2023/01/22 02:31:10;;;;;;;60.70;24.30;;;;;;;-1.18;100.00;102811.91;5049594;28;20071;-80
2023/01/22 02:33:36;;;;;;;52.65;22.92;;;;;;;-1.14;100.00;102809.31;5031606;28;20037;-81
2023/01/22 02:36:01;;;;;;;50.20;22.77;;;;;;;-1.03;100.00;102808.22;5047820;28;20127;-78
2023/01/22 02:38:27;;;;;;;50.63;23.33;;;;;;;-1.04;100.00;102806.53;5066313;28;20036;-79
2023/01/22 02:40:53;;;;;;;50.65;22.80;;;;;;;-1.13;100.00;102810.97;5050141;28;20029;-79
2023/01/22 02:43:18;;;;;;;56.45;23.90;;;;;;;-1.16;100.00;102816.16;5050146;28;20048;-81
2023/01/22 02:45:44;;;;;;;52.95;22.05;;;;;;;-1.19;100.00;102809.38;5064923;28;20033;-80
2023/01/22 02:48:10;;;;;;;52.40;23.20;;;;;;;-1.10;100.00;102816.84;5053223;28;20029;-80
2023/01/22 02:50:35;;;;;;;49.13;22.05;;;;;;;-1.13;100.00;102823.72;5043093;28;20036;-79
2023/01/22 02:53:01;;;;;;;53.58;21.65;;;;;;;-1.19;100.00;102814.47;5047286;28;20620;-80
2023/01/22 02:55:27;;;;;;;52.60;21.70;;;;;;;-1.18;100.00;102811.91;5040621;28;20041;-80
2023/01/22 02:57:55;;;;;;;53.17;23.80;;;;;;;-1.17;100.00;102802.56;5049374;28;20029;-80
2023/01/22 03:00:32;;;;;;;61.08;24.42;;;;;;;-1.12;100.00;102805.03;5029084;28;20037;-79
2023/01/22 03:02:57;;;;;;;50.50;23.63;;;;;;;-1.08;100.00;102799.81;5028390;28;20083;-81
2023/01/22 03:05:24;;;;;;;54.53;23.98;;;;;;;-1.15;100.00;102793.19;5054737;28;20040;-78
2023/01/22 03:07:49;;;;;;;50.47;23.35;;;;;;;-1.13;100.00;102788.91;5048782;28;20071;-79
2023/01/22 03:10:17;;;;;;;62.97;25.67;;;;;;;-1.16;100.00;102788.13;5048809;28;20409;-80
2023/01/22 03:21:16;;;;;;;53.38;22.08;;;;;;;-1.21;100.00;102781.41;5063157;28;20067;-79
2023/01/22 03:23:43;;;;;;;54.42;22.67;;;;;;;-1.26;100.00;102778.13;5050700;28;20424;-79
2023/01/22 03:26:09;;;;;;;51.60;23.10;;;;;;;-1.24;100.00;102789.13;5063763;28;20056;-83
2023/01/22 03:28:36;;;;;;;48.78;22.17;;;;;;;-1.18;100.00;102785.63;5051163;28;20464;-81
2023/01/22 03:31:02;;;;;;;50.42;22.80;;;;;;;-1.16;100.00;102776.25;5046967;28;20057;-80
2023/01/22 03:33:29;;;;;;;51.45;21.83;;;;;;;-1.22;100.00;102782.28;5054453;28;20040;-79
2023/01/22 03:36:02;;;;;;;50.00;22.73;;;;;;;-1.15;100.00;102784.72;5044461;28;20033;-79
2023/01/22 03:38:29;;;;;;;51.90;23.15;;;;;;;-1.16;100.00;102771.16;5047885;28;20037;-79
2023/01/22 03:41:15;;;;;;;50.28;22.30;;;;;;;-1.09;100.00;102771.84;5043473;28;20071;-80
2023/01/22 03:43:44;;;;;;;51.47;21.92;;;;;;;-1.17;100.00;102782.19;5046633;28;20028;-79
2023/01/22 03:46:18;;;;;;;51.20;22.90;;;;;;;-1.14;100.00;102761.75;5048424;28;20036;-80
2023/01/22 03:48:50;;;;;;;44.35;21.15;;;;;;;-1.06;100.00;102764.97;5055923;28;20065;-79
2023/01/22 03:51:17;;;;;;;47.60;22.35;;;;;;;-1.12;100.00;102756.66;5046493;28;20064;-80
2023/01/22 03:53:44;;;;;;;46.08;22.67;;;;;;;-1.18;100.00;102758.44;5044814;28;20560;-81
2023/01/22 03:56:12;;;;;;;51.10;22.10;;;;;;;-1.11;100.00;102771.91;5046559;28;20493;-79
2023/01/22 03:58:38;;;;;;;49.28;21.55;;;;;;;-1.05;100.00;102769.22;5063359;28;20091;-83
2023/01/22 04:01:08;;;;;;;50.10;21.65;;;;;;;-1.05;100.00;102769.22;5060181;28;20032;-79
2023/01/22 04:03:34;;;;;;;42.17;20.90;;;;;;;-1.16;100.00;102762.69;5044489;28;20032;-79
2023/01/22 04:06:00;;;;;;;50.42;22.92;;;;;;;-1.08;100.00;102769.25;5044634;28;20047;-79
2023/01/22 04:08:28;;;;;;;43.72;20.65;;;;;;;-1.09;100.00;102766.75;5048167;28;20120;-79
2023/01/22 04:10:55;;;;;;;45.83;21.50;;;;;;;-1.18;100.00;102765.25;5044533;28;20242;-80
2023/01/22 04:13:26;;;;;;;48.85;21.40;;;;;;;-1.16;100.00;102755.88;5028886;28;20036;-81
2023/01/22 04:15:53;;;;;;;45.25;21.65;;;;;;;-1.16;100.00;102775.41;5059034;28;20037;-80
2023/01/22 04:18:37;;;;;;;49.30;21.80;;;;;;;-1.22;100.00;102768.72;5043817;28;20186;-81
2023/01/22 04:21:23;;;;;;;49.67;22.98;;;;;;;-1.26;100.00;102762.88;5048344;28;20032;-84
2023/01/22 04:23:55;;;;;;;41.60;21.52;;;;;;;-1.28;100.00;102768.84;5050564;28;20071;-80
2023/01/22 04:26:21;;;;;;;49.10;21.58;;;;;;;-1.26;100.00;102767.09;5046772;28;20144;-79
2023/01/22 04:28:46;;;;;;;48.17;22.00;;;;;;;-1.19;100.00;102776.28;5030600;28;20107;-81
2023/01/22 04:31:13;;;;;;;45.33;21.23;;;;;;;-1.25;100.00;102768.78;5059415;28;20275;-78
2023/01/22 04:33:44;;;;;;;44.67;21.02;;;;;;;-1.25;100.00;102761.97;5043352;28;20076;-79
2023/01/22 04:36:23;;;;;;;44.00;20.88;;;;;;;-1.24;100.00;102770.47;5039242;28;20095;-80
2023/01/22 04:38:49;;;;;;;45.03;21.73;;;;;;;-1.29;100.00;102772.28;5050930;28;20036;-81
2023/01/22 04:41:14;;;;;;;49.00;21.00;;;;;;;-1.30;100.00;102765.50;5038297;28;20030;-80
2023/01/22 04:43:40;;;;;;;49.83;21.67;;;;;;;-1.33;100.00;102765.56;5046202;28;20497;-80
2023/01/22 04:46:05;;;;;;;43.92;21.65;;;;;;;-1.41;100.00;102771.66;5043453;28;20025;-81
2023/01/22 04:48:32;;;;;;;49.90;22.33;;;;;;;-1.34;100.00;102786.78;5061002;28;20030;-79
2023/01/22 04:50:58;;;;;;;45.80;22.02;;;;;;;-1.35;100.00;102778.31;5027496;28;20040;-82
2023/01/22 04:53:27;;;;;;;49.08;22.00;;;;;;;-1.38;100.00;102775.81;5045980;28;20028;-80
2023/01/22 04:55:53;;;;;;;43.83;20.75;;;;;;;-1.40;100.00;102770.75;5030701;28;20056;-79
2023/01/22 04:58:20;;;;;;;50.42;21.90;;;;;;;-1.29;100.00;102774.81;5029850;28;20033;-80
2023/01/22 05:00:45;;;;;;;43.95;20.45;;;;;;;-1.28;100.00;102776.47;5045003;28;20559;-80
2023/01/22 05:03:11;;;;;;;51.95;21.75;;;;;;;-1.34;100.00;102784.25;5057071;28;20033;-80
2023/01/22 05:05:37;;;;;;;46.30;20.63;;;;;;;-1.36;100.00;102781.72;5047540;28;20029;-80
2023/01/22 05:08:03;;;;;;;48.10;21.92;;;;;;;-1.32;100.00;102778.25;5064087;28;20086;-79
2023/01/22 05:10:30;;;;;;;39.97;20.63;;;;;;;-1.39;100.00;102780.09;5036590;28;20448;-80
2023/01/22 05:12:56;;;;;;;44.15;21.58;;;;;;;-1.40;100.00;102773.31;5047559;28;20030;-81
2023/01/22 05:15:24;;;;;;;40.58;19.67;;;;;;;-1.41;100.00;102773.38;5027996;28;20033;-80
2023/01/22 05:17:52;;;;;;;47.03;20.90;;;;;;;-1.43;100.00;102778.47;5027508;28;20029;-80
2023/01/22 05:20:18;;;;;;;45.38;20.23;;;;;;;-1.42;100.00;102766.56;5027791;28;20108;-80
2023/01/22 05:22:44;;;;;;;41.25;19.52;;;;;;;-1.35;100.00;102767.31;5039934;28;20473;-80
2023/01/22 05:25:10;;;;;;;38.70;20.38;;;;;;;-1.41;100.00;102758.91;5049346;28;20033;-80
2023/01/22 05:27:36;;;;;;;41.85;19.88;;;;;;;-1.38;100.00;102761.38;5049997;28;20082;-79
2023/01/22 05:30:08;;;;;;;44.38;19.75;;;;;;;-1.33;100.00;102768.94;5052053;28;20100;-82
2023/01/22 05:32:45;;;;;;;37.80;18.92;;;;;;;-1.40;100.00;102769.94;5048410;28;20037;-81
2023/01/22 05:35:11;;;;;;;40.40;19.75;;;;;;;-1.41;100.00;102775.91;5044945;28;20037;-80
2023/01/22 05:37:38;;;;;;;43.67;18.25;;;;;;;-1.40;100.00;102780.94;5049151;28;20037;-79
2023/01/22 05:40:06;;;;;;;40.15;18.92;;;;;;;-1.40;100.00;102775.84;5050155;28;20049;-79
2023/01/22 05:42:33;;;;;;;40.97;19.77;;;;;;;-1.40;100.00;102777.56;5049880;28;20032;-79
2023/01/22 05:45:00;;;;;;;39.08;18.90;;;;;;;-1.32;100.00;102775.69;5062500;28;20037;-82
2023/01/22 05:47:26;;;;;;;43.17;18.85;;;;;;;-1.39;100.00;102781.81;5046816;28;20032;-79
2023/01/22 05:50:29;;;;;;;38.15;18.13;;;;;;;-1.46;100.00;102780.25;5031110;28;20120;-80
2023/01/22 05:53:03;;;;;;;38.33;18.48;;;;;;;-1.32;100.00;102778.25;5050634;28;20732;-82
2023/01/22 05:55:28;;;;;;;38.20;17.77;;;;;;;-1.40;100.00;102775.03;5062400;28;20116;-79
2023/01/22 05:57:53;;;;;;;35.67;17.45;;;;;;;-1.33;100.00;102780.84;5049637;28;20067;-80
2023/01/22 06:00:19;;;;;;;36.88;17.83;;;;;;;-1.34;100.00;102779.97;5051011;28;20501;-77
2023/01/22 06:02:58;;;;;;;40.15;17.73;;;;;;;-1.34;100.00;102776.59;5050636;28;20037;-80
2023/01/22 06:05:24;;;;;;;41.63;16.95;;;;;;;-1.27;100.00;102781.53;5047162;28;20033;-80
2023/01/22 06:07:56;;;;;;;;;;;;;;;-1.22;100.00;102776.38;5035087;28;20064;-81
2023/01/22 06:10:25;;;;;;;41.28;17.45;;;;;;;-1.29;100.00;102787.53;5049345;28;19923;-80
2023/01/22 06:12:52;;;;;;;44.20;19.00;;;;;;;-1.28;100.00;102784.09;5034646;28;20029;-79
2023/01/22 06:15:17;;;;;;;40.03;18.05;;;;;;;-1.29;100.00;102785.81;5049600;28;20056;-79
2023/01/22 06:17:48;;;;;;;39.85;18.10;;;;;;;-1.33;100.00;102785.94;5045345;28;20033;-80
2023/01/22 06:20:13;;;;;;;38.83;18.05;;;;;;;-1.29;100.00;102797.72;5066953;28;20094;-80
2023/01/22 06:22:39;;;;;;;37.17;18.65;;;;;;;-1.23;100.00;102789.97;5031103;28;20061;-79
2023/01/22 06:25:07;;;;;;;36.25;17.48;;;;;;;-1.28;100.00;102794.28;5050525;28;20045;-83
2023/01/22 06:27:52;;;;;;;36.03;17.45;;;;;;;-1.33;100.00;102785.94;5049712;28;20090;-80
2023/01/22 06:30:18;;;;;;;39.22;19.13;;;;;;;-1.28;100.00;102784.97;5044203;28;20802;-79
2023/01/22 06:32:44;;;;;;;43.97;18.90;;;;;;;-1.21;100.00;102790.75;5036589;28;20178;-80
2023/01/22 06:35:11;;;;;;;37.78;18.33;;;;;;;-1.18;100.00;102790.72;5047534;28;20035;-80
2023/01/22 06:37:36;;;;;;;37.15;18.38;;;;;;;-1.20;100.00;102795.84;5062730;28;20037;-79
2023/01/22 06:40:02;;;;;;;36.65;17.35;;;;;;;-1.21;100.00;102796.69;5032616;28;20757;-81
2023/01/22 06:42:40;;;;;;;40.55;17.98;;;;;;;-1.14;100.00;102794.03;5036216;28;20028;-79
2023/01/22 06:45:06;;;;;;;34.78;16.77;;;;;;;-1.23;100.00;102798.44;5047316;28;20292;-79
2023/01/22 06:47:32;;;;;;;36.00;16.90;;;;;;;-1.15;100.00;102792.34;5052154;28;20082;-80
2023/01/22 06:49:58;;;;;;;41.33;17.50;;;;;;;-1.17;100.00;102792.38;5048888;28;20033;-79
2023/01/22 06:52:23;;;;;;;35.88;17.17;;;;;;;-1.07;100.00;102793.88;5045646;28;20029;-80
2023/01/22 06:54:49;;;;;;;33.75;15.68;;;;;;;-1.14;100.00;102796.59;5058106;28;20029;-80
2023/01/22 06:57:15;;;;;;;36.30;17.05;;;;;;;-1.16;100.00;102793.22;5049101;28;20030;-81
2023/01/22 06:59:40;;;;;;;39.70;18.17;;;;;;;-1.15;100.00;102799.97;5052257;28;20453;-82
2023/01/22 07:02:06;;;;;;;43.38;17.77;;;;;;;-1.17;100.00;102789.81;5050333;28;20025;-80
2023/01/22 07:04:31;;;;;;;33.88;17.23;;;;;;;-1.16;100.00;102798.31;5048401;28;20039;-80
2023/01/22 07:06:57;;;;;;;40.17;17.55;;;;;;;-1.11;100.00;102801.59;5048563;28;20036;-82
2023/01/22 07:09:22;;;;;;;33.42;16.25;;;;;;;-1.11;100.00;102799.91;5048612;28;20032;-79
2023/01/22 07:11:48;;;;;;;34.28;16.13;;;;;;;-1.11;100.00;102799.91;5048863;28;20525;-80
2023/01/22 07:14:13;;;;;;;38.97;17.10;;;;;;;-1.08;100.00;102801.53;5047907;28;20124;-81
2023/01/22 07:16:39;;;;;;;33.40;15.35;;;;;;;-1.05;100.00;102811.69;5049252;28;20041;-79
2023/01/22 07:19:04;;;;;;;29.50;14.82;;;;;;;-1.08;100.00;102807.47;5047528;28;20036;-79
2023/01/22 07:21:30;;;;;;;27.00;14.93;;;;;;;-1.09;100.00;102808.34;5060479;28;20040;-82
2023/01/22 07:23:55;;;;;;;34.08;16.25;;;;;;;-1.16;100.00;102809.34;5031496;28;20374;-79
2023/01/22 07:26:21;;;;;;;34.63;15.80;;;;;;;-1.11;100.00;102815.19;5047441;28;20033;-79
2023/01/22 07:28:46;;;;;;;31.95;15.55;;;;;;;-1.05;100.00;102809.13;5043602;28;20033;-81
2023/01/22 07:31:12;;;;;;;34.70;16.65;;;;;;;-1.01;100.00;102816.66;5048746;28;20401;-79
2023/01/22 07:33:38;;;;;;;30.63;15.57;;;;;;;-1.10;100.00;102819.41;5066425;28;20116;-79
2023/01/22 07:36:03;;;;;;;34.83;16.00;;;;;;;-1.12;100.00;102825.41;5063093;28;20033;-79
2023/01/22 07:38:29;;;;;;;40.90;21.00;;;;;;;-1.11;100.00;102833.00;5039695;28;20033;-79
2023/01/22 07:41:05;;;;;;;39.50;17.95;;;;;;;-1.08;100.00;102822.75;5050961;28;20494;-83
2023/01/22 07:43:31;;;;;;;52.95;23.90;;;;;;;-0.97;100.00;102825.06;5052322;28;20048;-80
2023/01/22 07:46:02;;;;;;;38.88;18.83;;;;;;;-1.13;100.00;102827.13;5047901;28;20029;-81
2023/01/22 07:48:28;;;;;;;102.18;36.75;;;;;;;-1.06;100.00;102830.34;5051171;28;20063;-78
2023/01/22 07:50:58;;;;;;;42.40;19.13;;;;;;;-1.09;100.00;102826.19;5048131;28;20497;-79
2023/01/22 07:53:23;;;;;;;40.42;17.63;;;;;;;-1.07;100.00;102832.06;5048808;28;20028;-78
2023/01/22 07:55:48;;;;;;;45.08;22.20;;;;;;;-1.05;100.00;102842.25;5045928;28;20110;-80
2023/01/22 07:58:14;;;;;;;34.83;15.75;;;;;;;-1.08;100.00;102837.19;5049805;28;20040;-79
2023/01/22 08:00:39;;;;;;;47.08;21.70;;;;;;;-1.02;100.00;102847.25;5044999;28;20120;-79
2023/01/22 08:03:09;;;;;;;35.58;16.80;;;;;;;-1.01;100.00;102848.94;5064661;28;20032;-80
2023/01/22 08:05:35;;;;;;;36.13;18.25;;;;;;;-1.08;100.00;102850.75;5065973;28;20401;-82
2023/01/22 08:08:01;;;;;;;36.60;17.92;;;;;;;-1.02;100.00;102852.34;5049329;28;20036;-79
2023/01/22 08:10:26;;;;;;;36.05;18.00;;;;;;;-1.05;100.00;102852.44;5029167;28;20057;-79
2023/01/22 08:12:52;;;;;;;36.38;17.80;;;;;;;-0.99;100.00;102850.56;5032269;28;20029;-79
2023/01/22 08:15:18;;;;;;;36.83;18.38;;;;;;;-1.08;100.00;102848.22;5047587;28;20378;-81
2023/01/22 08:17:43;;;;;;;37.53;17.08;;;;;;;-1.06;100.00;102851.56;5053674;28;20054;-79
2023/01/22 08:20:09;;;;;;;37.28;17.70;;;;;;;-0.98;100.00;102856.50;5046984;28;20041;-80
2023/01/22 08:22:35;;;;;;;34.72;17.15;;;;;;;-0.96;100.00;102854.78;5049206;28;20021;-81
2023/01/22 08:25:01;;;;;;;36.95;16.50;;;;;;;-1.10;100.00;102857.59;5064061;28;20425;-81
2023/01/22 08:27:29;;;;;;;32.30;16.40;;;;;;;-1.00;100.00;102860.78;5044147;28;20106;-80
2023/01/22 08:29:55;;;;;;;32.83;16.15;;;;;;;-0.91;100.00;102858.06;5063542;28;20044;-79
2023/01/22 08:32:20;;;;;;;40.10;17.63;;;;;;;-0.89;100.00;102858.88;5052628;28;20394;-79
2023/01/22 08:34:46;;;;;;;32.05;15.13;;;;;;;-0.98;100.00;102865.00;5044562;28;20409;-81
2023/01/22 08:37:11;;;;;;;38.72;16.63;;;;;;;-1.02;100.00;102862.53;5045822;28;20039;-79
2023/01/22 08:39:37;;;;;;;34.78;16.73;;;;;;;-1.01;100.00;102866.78;5045624;28;20029;-81
2023/01/22 08:42:02;;;;;;;31.65;15.60;;;;;;;-1.04;100.00;102871.91;5049965;28;20704;-81
2023/01/22 08:44:28;;;;;;;31.73;16.75;;;;;;;-0.90;100.00;102875.03;5033513;28;20036;-82
2023/01/22 08:46:53;;;;;;;34.55;17.02;;;;;;;-0.98;100.00;102875.19;5047824;28;20029;-82
2023/01/22 08:49:21;;;;;;;58.20;27.40;;;;;;;-0.99;100.00;102876.03;5064408;28;20028;-80
2023/01/22 08:51:46;;;;;;;50.53;23.90;;;;;;;-0.89;100.00;102870.78;5047392;28;20045;-82
2023/01/22 08:54:12;;;;;;;38.05;18.95;;;;;;;-0.87;100.00;102872.41;5046951;28;20094;-81
2023/01/22 08:56:37;;;;;;;42.70;19.45;;;;;;;-0.86;100.00;102871.56;5045320;28;20505;-81
2023/01/22 08:59:05;;;;;;;35.20;18.13;;;;;;;-0.89;100.00;102863.97;5050837;28;20374;-81
2023/01/22 09:01:32;;;;;;;39.78;19.90;;;;;;;-0.82;100.00;102860.41;5045701;28;20135;-81
2023/01/22 09:03:58;;;;;;;37.55;19.05;;;;;;;-0.82;100.00;102877.41;5027642;28;20060;-80
2023/01/22 09:06:25;;;;;;;38.70;18.92;;;;;;;-0.84;100.00;102866.44;5045423;28;20662;-81
2023/01/22 09:08:51;;;;;;;35.50;17.20;;;;;;;-0.86;100.00;102876.66;5059764;28;20114;-81
2023/01/22 09:11:17;;;;;;;39.10;18.05;;;;;;;-0.87;100.00;102872.41;5023444;28;20444;-82
2023/01/22 09:13:43;;;;;;;34.20;17.77;;;;;;;-0.91;100.00;102859.78;5061192;28;20041;-82
2023/01/22 09:16:09;;;;;;;34.97;18.17;;;;;;;-0.92;100.00;102864.03;5059706;28;20037;-81
2023/01/22 09:18:36;;;;;;;38.50;18.15;;;;;;;-0.82;100.00;102869.78;5049381;28;20036;-81
2023/01/22 09:21:03;;;;;;;33.50;17.85;;;;;;;-0.85;100.00;102869.84;5049882;28;20045;-82
2023/01/22 09:23:29;;;;;;;33.78;17.42;;;;;;;-0.83;100.00;102858.75;5049943;28;20528;-82
2023/01/22 09:25:54;;;;;;;36.17;18.98;;;;;;;-0.75;100.00;102865.38;5066875;28;20036;-80
2023/01/22 09:28:20;;;;;;;35.75;17.92;;;;;;;-0.80;100.00;102873.13;5049723;28;20052;-82
2023/01/22 09:30:45;;;;;;;37.08;19.15;;;;;;;-0.77;100.00;102867.97;5056029;28;20029;-81
2023/01/22 09:33:11;;;;;;;38.00;19.08;;;;;;;-0.77;100.00;102867.97;5049768;28;20251;-81
2023/01/22 09:35:36;;;;;;;62.10;26.95;;;;;;;-0.81;100.00;102869.75;5052904;28;20091;-81
2023/01/22 09:38:04;;;;;;;33.33;17.40;;;;;;;-0.83;100.00;102874.03;5049151;28;20473;-81
2023/01/22 09:40:35;;;;;;;34.63;18.27;;;;;;;-0.76;100.00;102877.28;5045347;28;20037;-81
2023/01/22 09:43:06;;;;;;;42.13;19.30;;;;;;;-0.81;100.00;102879.09;5063787;28;20033;-80
2023/01/22 09:45:36;;;;;;;41.25;18.38;;;;;;;-0.81;100.00;102881.63;5046809;28;20075;-82
2023/01/22 09:48:08;;;;;;;45.60;20.35;;;;;;;-0.71;100.00;102890.78;5048780;28;20112;-80
2023/01/22 09:50:34;;;;;;;35.72;18.25;;;;;;;-0.70;100.00;102886.50;5062343;28;20167;-81
2023/01/22 09:53:06;;;;;;;39.92;18.02;;;;;;;-0.72;100.00;102885.72;5034226;28;20025;-81
2023/01/22 09:55:39;;;;;;;36.90;18.60;;;;;;;-0.72;100.00;102885.72;5042198;28;20068;-81
2023/01/22 09:58:12;;;;;;;36.92;18.40;;;;;;;-0.61;100.00;102884.59;5050120;28;20127;-81
2023/01/22 10:00:39;;;;;;;;;;;;;;;-0.63;100.00;102882.97;5047899;28;20590;-80
2023/01/22 10:03:17;;;;;;;42.80;21.48;;;;;;;-0.69;100.00;102885.66;5064708;28;20392;-81
2023/01/22 10:05:50;;;;;;;40.00;19.88;;;;;;;-0.64;100.00;102889.78;5049195;28;20033;-81
2023/01/22 10:08:20;;;;;;;45.78;21.48;;;;;;;-0.59;100.00;102889.69;5041002;28;20033;-80
2023/01/22 10:10:46;;;;;;;47.35;23.20;;;;;;;-0.54;100.00;102884.50;5043691;28;20048;-79
2023/01/22 10:13:32;;;;;;;45.85;22.30;;;;;;;-0.57;100.00;102880.28;5065011;28;20116;-81
2023/01/22 10:15:58;;;;;;;53.63;28.80;;;;;;;-0.56;100.00;102876.88;5033054;28;20041;-81
2023/01/22 10:18:39;;;;;;;42.70;22.75;;;;;;;-0.54;100.00;102875.13;5029864;28;20044;-81
2023/01/22 10:21:23;;;;;;;62.10;31.38;;;;;;;-0.45;100.00;102874.09;5048492;28;20090;-81
2023/01/22 10:23:49;;;;;;;68.05;32.40;;;;;;;-0.41;100.00;102871.44;5065996;28;20025;-80
2023/01/22 10:26:23;;;;;;;50.92;24.55;;;;;;;-0.37;100.00;102871.38;5030601;28;20521;-80
2023/01/22 10:28:53;;;;;;;56.92;24.45;;;;;;;-0.37;100.00;102866.28;5049278;28;20501;-81
2023/01/22 10:31:36;;;;;;;52.85;25.35;;;;;;;-0.41;100.00;102866.34;5045184;28;20139;-80
2023/01/22 10:34:14;;;;;;;51.45;26.88;;;;;;;-0.43;100.00;102854.50;5048656;28;20044;-82
2023/01/22 10:36:48;;;;;;;36.83;20.20;;;;;;;-0.41;100.00;102853.59;5046632;28;20041;-80
2023/01/22 10:39:15;;;;;;;44.53;24.35;;;;;;;-0.43;100.00;102857.06;5049471;28;20086;-81
2023/01/22 10:41:42;;;;;;;31.55;17.63;;;;;;;-0.40;100.00;102857.84;5050046;28;20590;-80
2023/01/22 10:44:21;;;;;;;45.03;23.88;;;;;;;-0.39;100.00;102856.13;5035584;28;20467;-81
2023/01/22 10:46:48;;;;;;;40.22;21.83;;;;;;;-0.31;100.00;102866.97;5055573;28;20037;-80
2023/01/22 10:49:20;;;;;;;36.20;19.65;;;;;;;-0.27;100.00;102862.63;5063021;28;20040;-81
2023/01/22 10:51:58;;;;;;;38.67;18.70;;;;;;;-0.32;100.00;102865.31;5049886;28;20051;-80
2023/01/22 10:54:42;;;;;;;35.38;18.00;;;;;;;-0.26;100.00;102859.22;5048728;28;20032;-80
2023/01/22 10:57:23;;;;;;;34.22;18.20;;;;;;;-0.26;100.00;102872.81;5045849;28;20037;-80
2023/01/22 11:00:20;;;;;;;32.13;16.15;;;;;;;-0.15;100.00;102864.06;5050420;28;20037;-79
2023/01/22 11:02:48;;;;;;;29.73;16.13;;;;;;;-0.24;100.00;102862.56;5037463;28;20114;-80
2023/01/22 11:05:18;;;;;;;33.30;17.90;;;;;;;-0.15;100.00;102857.25;5051212;28;20045;-78
2023/01/22 11:07:45;;;;;;;31.05;16.88;;;;;;;-0.27;100.00;102855.81;5046017;28;20033;-80
2023/01/22 11:10:34;;;;;;;32.63;17.35;;;;;;;-0.24;100.00;102857.47;5053110;28;20041;-80
2023/01/22 11:13:10;;;;;;;33.97;17.27;;;;;;;-0.14;100.00;102858.09;5058915;28;20132;-80
2023/01/22 11:15:44;;;;;;;36.58;16.38;;;;;;;-0.08;100.00;102858.78;5047692;28;20047;-80
2023/01/22 11:18:17;;;;;;;33.08;17.13;;;;;;;-0.08;100.00;102850.28;5064059;28;20129;-80